< Cyclone 201129 2012 Season Cyclone 201207 >
Cyclone 201204 (Grant)
General InformationDetailed Track InformationTrack Information on Google MapsList of All Images || ResourceGoogle EarthGE AnimationAtom FeedGeoJSON
Detalied Best Track Wind (Time Zone = UTC)
Year Month Day Hour Lat. Long. Wind (kt) Gust (kt) Direc. of Major Storm Axis Radius of Major Storm Axis (nm) Radius of Minor Storm Axis (nm) Direc. of Major Gale Axis Radius of Major Gale Axis (nm) Radius of Minor Gale Axis (nm) Image
2011 12 21 00 -10.4 134.5 20 45 symmetric - - symmetric - - Image
2011 12 21 03 -9.9 133.6 20 -1 symmetric - - symmetric - - Image
2011 12 21 06 -9.5 132.3 20 45 symmetric - - symmetric - - Image
2011 12 21 12 -9.5 132.3 20 45 symmetric - - symmetric - - Image
2011 12 21 15 -9.6 132.3 20 45 symmetric - - symmetric - - Image
2011 12 21 18 -9.7 132.4 20 45 symmetric - - symmetric - - Image
2011 12 21 21 -9.8 132.5 20 45 symmetric - - symmetric - - Image
2011 12 22 00 -10.0 132.4 20 45 symmetric - - symmetric - - Image
2011 12 22 03 -10.1 132.2 20 -1 symmetric - - symmetric - - Image
2011 12 22 06 -10.1 132.0 20 45 symmetric - - symmetric - - Image
2011 12 22 09 -10.1 131.5 23 45 symmetric - - symmetric - - Image
2011 12 22 12 -10.2 131.1 20 -1 symmetric - - symmetric - - Image
2011 12 22 15 -10.3 131.1 20 45 symmetric - - symmetric - - Image
2011 12 22 18 -10.4 131.3 20 45 symmetric - - symmetric - - Image
2011 12 22 21 -10.5 131.5 25 45 symmetric - - symmetric - - Image
2011 12 23 00 -10.5 131.7 25 45 symmetric - - symmetric - - Image
2011 12 23 03 -10.6 132.2 25 45 symmetric - - symmetric - - Image
2011 12 23 06 -10.7 132.5 25 45 symmetric - - symmetric - - Image
2011 12 23 09 -10.5 132.2 25 45 symmetric - - symmetric - - Image
2011 12 23 12 -10.5 132.0 25 45 symmetric - - symmetric - - Image
2011 12 23 15 -10.5 131.8 25 45 symmetric - - symmetric - - Image
2011 12 23 18 -10.6 131.5 25 45 symmetric - - symmetric - - Image
2011 12 23 21 -10.6 131.4 25 45 symmetric - - symmetric - - Image
2011 12 24 00 -10.7 131.4 25 45 symmetric - - symmetric - - Image
2011 12 24 03 -10.7 131.4 25 45 symmetric - - symmetric - - Image
2011 12 24 06 -10.7 131.4 25 45 symmetric - - symmetric - - Image
2011 12 24 09 -10.7 131.6 30 45 symmetric - - symmetric - - Image
2011 12 24 12 -10.7 131.9 30 45 symmetric - - symmetric - - Image
2011 12 24 15 -10.6 132.1 30 45 symmetric - - symmetric - - Image
2011 12 24 18 -10.5 132.4 35 50 symmetric - - symmetric - - Image
2011 12 24 21 -10.6 132.4 35 50 symmetric - - symmetric - - Image
2011 12 25 00 -10.6 132.4 35 50 symmetric - - symmetric - - Image
2011 12 25 03 -10.8 132.8 45 60 symmetric - - symmetric - - Image
2011 12 25 06 -10.9 132.7 50 70 symmetric - - symmetric - - Image
2011 12 25 09 -11.1 132.7 50 70 symmetric - - symmetric - - Image
2011 12 25 12 -11.4 132.7 55 75 symmetric - - symmetric - - Image
2011 12 25 15 -11.7 132.5 55 75 symmetric - - symmetric - - Image
2011 12 25 18 -11.9 132.7 50 70 symmetric - - symmetric - - Image
2011 12 25 21 -12.1 132.6 45 65 symmetric - - symmetric - - Image
2011 12 26 00 -12.3 132.6 40 55 symmetric - - symmetric - - Image
2011 12 26 03 -12.4 132.6 30 45 symmetric - - symmetric - - Image
2011 12 26 06 -12.5 132.6 30 45 symmetric - - symmetric - - Image
2011 12 26 09 -13.0 132.6 25 45 symmetric - - symmetric - - Image
2011 12 26 12 -13.1 132.6 20 45 symmetric - - symmetric - - Image
2011 12 26 15 -13.2 132.8 20 45 symmetric - - symmetric - - Image
2011 12 26 18 -13.3 132.9 20 45 symmetric - - symmetric - - Image
2011 12 26 21 -13.3 132.9 20 45 symmetric - - symmetric - - Image
2011 12 27 00 -13.4 132.9 20 45 symmetric - - symmetric - - Image
2011 12 27 03 -13.6 133.1 20 45 symmetric - - symmetric - - Image
2011 12 27 06 -13.9 133.6 20 45 symmetric - - symmetric - - Image
2011 12 27 09 -13.9 134.0 20 45 symmetric - - symmetric - - Image
2011 12 27 12 -13.9 134.3 20 45 symmetric - - symmetric - - Image
2011 12 27 15 -13.9 134.5 20 45 symmetric - - symmetric - - Image
2011 12 27 18 -13.9 134.7 20 45 symmetric - - symmetric - - Image
2011 12 27 21 -13.9 134.9 15 45 symmetric - - symmetric - - Image
2011 12 28 00 -14.0 135.3 20 45 symmetric - - symmetric - - Image
2011 12 28 03 -14.0 135.8 25 45 symmetric - - symmetric - - Image
2011 12 28 06 -14.0 136.2 25 45 symmetric - - symmetric - - Image
2011 12 28 12 -14.2 137.1 25 -1 symmetric - - symmetric - - Image
2011 12 28 18 -14.3 138.0 25 45 symmetric - - symmetric - - Image
2011 12 29 00 -14.3 139.2 20 45 symmetric - - symmetric - - Image
2011 12 29 03 -14.0 139.8 20 -1 symmetric - - symmetric - - Image
2011 12 29 06 -13.9 140.2 20 45 symmetric - - symmetric - - Image
2011 12 29 09 -13.7 140.4 20 -1 symmetric - - symmetric - - Image
2011 12 29 12 -13.6 140.7 20 45 symmetric - - symmetric - - Image
2011 12 29 15 -13.6 141.1 20 -1 symmetric - - symmetric - - Image
2011 12 29 18 -13.6 141.5 20 45 symmetric - - symmetric - - Image
2011 12 29 21 -13.6 142.0 20 40 symmetric - - symmetric - - Image
2011 12 30 00 -13.5 142.7 20 40 symmetric - - symmetric - - Image
2011 12 30 03 -13.5 143.2 21.25 -1 symmetric - - symmetric - - Image
2011 12 30 06 -13.5 143.7 22.5 -1 symmetric - - symmetric - - Image
2011 12 30 12 -13.0 145.4 23.75 -1 symmetric - - symmetric - - Image
2011 12 30 18 -12.8 146.1 25 45 symmetric - - symmetric - - Image
2011 12 31 00 -12.4 146.9 25 -1 symmetric - - symmetric - - Image
2011 12 31 06 -12.5 148.5 25 45 symmetric - - symmetric - - Image
< Cyclone 201129 2012 Season Cyclone 201207 >

Help